createdAt,value
2017-08-24T00:01:17.130Z,62.50
2017-08-24T00:03:43.422Z,62.70
2017-08-24T00:06:09.674Z,62.70
2017-08-24T00:08:35.910Z,62.70
2017-08-24T00:11:13.722Z,62.80
2017-08-24T00:13:39.999Z,63.30
2017-08-24T00:16:06.256Z,62.70
2017-08-24T00:18:32.540Z,62.70
2017-08-24T00:20:58.810Z,62.70
2017-08-24T00:23:25.095Z,62.70
2017-08-24T00:25:51.365Z,62.70
2017-08-24T00:28:17.617Z,63.40
2017-08-24T00:30:44.002Z,62.50
2017-08-24T00:33:10.570Z,62.50
2017-08-24T00:35:36.814Z,62.50
2017-08-24T00:38:03.134Z,62.60
2017-08-24T00:40:30.374Z,62.50
2017-08-24T00:42:56.631Z,62.50
2017-08-24T00:45:22.924Z,62.70
2017-08-24T00:47:49.215Z,62.40
2017-08-24T00:50:15.493Z,62.40
2017-08-24T00:52:41.834Z,62.40
2017-08-24T00:55:08.142Z,62.20
2017-08-24T00:57:34.391Z,62.00
2017-08-24T01:00:00.658Z,62.20
2017-08-24T01:02:26.958Z,62.20
2017-08-24T01:04:53.250Z,62.30
2017-08-24T01:07:19.519Z,62.30
2017-08-24T01:09:45.884Z,62.20
2017-08-24T01:12:13.063Z,62.20
2017-08-24T01:14:39.330Z,62.40
2017-08-24T01:17:06.536Z,62.30
2017-08-24T01:19:32.804Z,62.00
2017-08-24T01:21:59.075Z,62.10
2017-08-24T01:24:25.346Z,61.90
2017-08-24T01:26:51.658Z,62.10
2017-08-24T01:29:17.914Z,61.80
2017-08-24T01:31:44.186Z,62.20
2017-08-24T01:34:10.471Z,62.50
2017-08-24T01:36:36.828Z,61.90
2017-08-24T01:39:03.819Z,62.00
2017-08-24T01:41:30.091Z,62.20
2017-08-24T01:43:56.365Z,62.30
2017-08-24T01:46:22.646Z,63.00
2017-08-24T01:48:48.926Z,63.70
2017-08-24T01:51:15.206Z,63.70
2017-08-24T01:53:41.473Z,64.20
2017-08-24T01:56:07.718Z,64.50
2017-08-24T01:58:33.950Z,64.10
2017-08-24T02:01:00.262Z,63.70
2017-08-24T02:03:26.523Z,63.40
2017-08-24T02:05:52.798Z,62.80
2017-08-24T02:08:19.097Z,62.40
2017-08-24T02:10:45.410Z,62.10
2017-08-24T02:13:16.211Z,61.90
2017-08-24T02:15:42.518Z,61.90
2017-08-24T02:18:08.767Z,61.20
2017-08-24T02:20:35.078Z,61.20
2017-08-24T02:23:03.311Z,61.00
2017-08-24T02:25:29.579Z,60.70
2017-08-24T02:27:55.822Z,60.60
2017-08-24T02:30:22.931Z,60.50
2017-08-24T02:32:49.201Z,60.70
2017-08-24T02:35:15.447Z,60.40
2017-08-24T02:37:42.537Z,60.40
2017-08-24T02:40:08.804Z,60.30
2017-08-24T02:42:35.070Z,59.90
2017-08-24T02:45:01.427Z,59.90
2017-08-24T02:47:27.707Z,59.60
2017-08-24T02:49:53.990Z,59.60
2017-08-24T02:52:21.188Z,59.30
2017-08-24T02:54:47.444Z,59.20
2017-08-24T02:57:13.716Z,59.20
2017-08-24T02:59:40.016Z,59.30
2017-08-24T03:02:06.339Z,59.70
2017-08-24T03:04:32.622Z,58.80
2017-08-24T03:06:59.207Z,58.40
2017-08-24T03:09:25.459Z,58.40
2017-08-24T03:11:51.741Z,58.40
2017-08-24T03:14:22.416Z,58.40
2017-08-24T03:16:48.771Z,58.30
2017-08-24T03:19:15.070Z,58.30
2017-08-24T03:21:41.353Z,58.10
2017-08-24T03:24:07.603Z,58.30
2017-08-24T03:26:33.878Z,58.00
2017-08-24T03:29:01.056Z,58.20
2017-08-24T03:31:27.331Z,58.30
2017-08-24T03:33:53.598Z,58.10
2017-08-24T03:36:19.867Z,58.50
2017-08-24T03:38:46.138Z,58.20
2017-08-24T03:41:12.415Z,58.30
2017-08-24T03:43:40.317Z,58.20
2017-08-24T03:46:06.631Z,58.30
2017-08-24T03:48:32.892Z,58.10
2017-08-24T03:51:00.019Z,58.30
2017-08-24T03:53:26.275Z,58.20
2017-08-24T03:55:52.513Z,58.30
2017-08-24T03:58:18.817Z,58.40
2017-08-24T04:00:45.107Z,58.40
2017-08-24T04:03:11.378Z,58.40
2017-08-24T04:05:37.635Z,58.20
2017-08-24T04:08:03.971Z,58.40
2017-08-24T04:10:30.231Z,58.60
2017-08-24T04:12:57.303Z,58.40
2017-08-24T04:15:24.963Z,58.60
2017-08-24T04:17:51.218Z,59.20
2017-08-24T04:20:17.484Z,58.80
2017-08-24T04:22:43.776Z,58.90
2017-08-24T04:25:10.104Z,59.10
2017-08-24T04:27:36.434Z,58.90
2017-08-24T04:30:02.735Z,59.10
2017-08-24T04:32:28.999Z,59.10
2017-08-24T04:34:55.819Z,59.10
2017-08-24T04:37:22.074Z,59.20
2017-08-24T04:39:48.346Z,59.80
2017-08-24T04:42:14.642Z,59.20
2017-08-24T04:44:40.905Z,59.10
2017-08-24T04:47:07.218Z,59.30
2017-08-24T04:49:33.484Z,59.70
2017-08-24T04:51:59.738Z,59.80
2017-08-24T04:54:25.987Z,59.70
2017-08-24T04:56:52.294Z,59.40
2017-08-24T04:59:18.562Z,59.70
2017-08-24T05:01:44.800Z,59.70
2017-08-24T05:04:11.166Z,59.60
2017-08-24T05:06:37.433Z,59.90
2017-08-24T05:09:03.706Z,59.90
2017-08-24T05:11:30.047Z,60.00
2017-08-24T05:13:56.302Z,59.90
2017-08-24T05:16:23.026Z,60.00
2017-08-24T05:18:50.206Z,59.90
2017-08-24T05:21:16.454Z,60.10
2017-08-24T05:23:42.698Z,60.10
2017-08-24T05:26:08.966Z,60.40
2017-08-24T05:28:35.224Z,60.00
2017-08-24T05:31:01.491Z,60.20
2017-08-24T05:33:27.809Z,59.70
2017-08-24T05:35:54.110Z,60.10
2017-08-24T05:38:20.366Z,60.20
2017-08-24T05:40:46.698Z,60.50
2017-08-24T05:43:12.952Z,60.50
2017-08-24T05:45:39.207Z,60.70
2017-08-24T05:48:05.502Z,61.00
2017-08-24T05:50:31.767Z,60.70
2017-08-24T05:52:58.063Z,60.70
2017-08-24T05:55:24.330Z,60.20
2017-08-24T05:57:50.599Z,60.50
2017-08-24T06:00:16.854Z,60.90
2017-08-24T06:02:43.171Z,60.80
2017-08-24T06:05:09.479Z,60.90
2017-08-24T06:07:35.786Z,61.10
2017-08-24T06:10:02.071Z,60.40
2017-08-24T06:12:28.327Z,61.10
2017-08-24T06:14:54.631Z,61.30
2017-08-24T06:17:21.470Z,61.50
2017-08-24T06:19:47.756Z,61.70
2017-08-24T06:22:14.099Z,62.40
2017-08-24T06:24:40.575Z,63.60
2017-08-24T06:27:06.870Z,62.90
2017-08-24T06:29:33.159Z,63.30
2017-08-24T06:31:59.427Z,63.10
2017-08-24T06:34:25.695Z,62.70
2017-08-24T06:36:52.044Z,63.00
2017-08-24T06:39:18.334Z,63.40
2017-08-24T06:41:44.603Z,63.90
2017-08-24T06:44:11.104Z,63.90
2017-08-24T06:46:37.810Z,63.80
2017-08-24T06:49:04.082Z,64.20
2017-08-24T06:51:30.332Z,64.30
2017-08-24T06:53:56.595Z,64.60
2017-08-24T06:56:22.863Z,64.70
2017-08-24T06:58:49.174Z,64.60
2017-08-24T07:01:15.468Z,64.80
2017-08-24T07:03:41.767Z,65.30
2017-08-24T07:06:08.118Z,65.40
2017-08-24T07:08:34.452Z,65.40
2017-08-24T07:11:00.742Z,65.40
2017-08-24T07:13:27.014Z,65.10
2017-08-24T07:15:53.267Z,65.20
2017-08-24T07:18:20.682Z,65.20
2017-08-24T07:20:46.962Z,65.40
2017-08-24T07:23:13.231Z,65.60
2017-08-24T07:25:39.538Z,65.90
2017-08-24T07:28:05.793Z,66.40
2017-08-24T07:30:32.500Z,66.50
2017-08-24T07:32:58.769Z,66.30
2017-08-24T07:35:25.067Z,66.80
2017-08-24T07:37:51.358Z,67.00
2017-08-24T07:40:17.618Z,67.10
2017-08-24T07:42:43.872Z,67.50
2017-08-24T07:45:10.187Z,67.70
2017-08-24T07:47:36.440Z,68.20
2017-08-24T07:50:02.708Z,68.20
2017-08-24T07:52:29.018Z,68.90
2017-08-24T07:54:55.274Z,68.90
2017-08-24T07:57:21.570Z,69.20
2017-08-24T07:59:48.599Z,69.40
2017-08-24T08:02:14.862Z,69.40
2017-08-24T08:04:41.138Z,69.70
2017-08-24T08:07:07.449Z,69.80
2017-08-24T08:09:40.801Z,69.90
2017-08-24T08:12:07.108Z,70.30
2017-08-24T08:14:33.842Z,70.60
2017-08-24T08:17:00.091Z,70.90
2017-08-24T08:19:27.220Z,71.40
2017-08-24T08:21:53.482Z,71.40
2017-08-24T08:24:19.803Z,71.50
2017-08-24T08:26:46.094Z,71.90
2017-08-24T08:29:12.354Z,72.80
2017-08-24T08:31:38.667Z,74.00
2017-08-24T08:34:05.025Z,73.90
2017-08-24T08:36:31.294Z,75.00
2017-08-24T08:39:04.602Z,76.90
2017-08-24T08:41:30.854Z,77.40
2017-08-24T08:43:57.117Z,79.90
2017-08-24T08:46:23.427Z,81.40
2017-08-24T08:48:49.738Z,82.00
2017-08-24T08:51:16.020Z,82.70
2017-08-24T08:53:42.895Z,83.00
2017-08-24T08:56:09.142Z,84.40
2017-08-24T08:58:35.394Z,84.80
2017-08-24T09:01:01.677Z,85.30
2017-08-24T09:03:27.915Z,85.30
2017-08-24T09:05:54.198Z,85.70
2017-08-24T09:08:20.475Z,85.80
2017-08-24T09:10:46.746Z,86.20
2017-08-24T09:13:13.023Z,86.20
2017-08-24T09:15:39.838Z,86.20
2017-08-24T09:18:06.106Z,86.00
2017-08-24T09:20:33.729Z,86.60
2017-08-24T09:23:00.004Z,86.30
2017-08-24T09:25:26.308Z,86.50
2017-08-24T09:27:52.595Z,86.20
2017-08-24T09:30:18.860Z,86.40
2017-08-24T09:32:45.108Z,86.40
2017-08-24T09:35:11.367Z,86.60
2017-08-24T09:37:37.975Z,86.50
2017-08-24T09:40:04.237Z,86.60
2017-08-24T09:42:30.490Z,86.40
2017-08-24T09:44:56.778Z,86.50
2017-08-24T09:47:23.001Z,86.80
2017-08-24T09:49:49.258Z,86.90
2017-08-24T09:52:16.623Z,87.30
2017-08-24T09:54:42.964Z,86.60
2017-08-24T09:57:10.125Z,86.50
2017-08-24T09:59:37.251Z,86.30
2017-08-24T10:02:03.518Z,86.40
2017-08-24T10:04:31.210Z,86.20
2017-08-24T10:06:57.497Z,86.00
2017-08-24T10:09:23.766Z,85.90
2017-08-24T10:11:50.071Z,86.20
2017-08-24T10:14:16.438Z,86.10
2017-08-24T10:16:42.710Z,85.70
2017-08-24T10:19:08.968Z,85.40
2017-08-24T10:21:36.501Z,85.20
2017-08-24T10:24:02.791Z,84.70
2017-08-24T10:26:29.069Z,84.50
2017-08-24T10:28:55.339Z,84.50
2017-08-24T10:31:21.678Z,84.60
2017-08-24T10:33:47.890Z,84.50
2017-08-24T10:36:14.236Z,83.70
2017-08-24T10:38:40.498Z,83.70
2017-08-24T10:41:06.768Z,83.40
2017-08-24T10:43:33.587Z,83.10
2017-08-24T10:45:59.886Z,82.80
2017-08-24T10:48:26.150Z,82.10
2017-08-24T10:50:52.418Z,81.10
2017-08-24T10:53:18.690Z,81.10
2017-08-24T10:55:44.971Z,80.60
2017-08-24T10:58:11.260Z,80.50
2017-08-24T11:00:37.535Z,79.80
2017-08-24T11:03:03.779Z,79.90
2017-08-24T11:05:30.705Z,79.60
2017-08-24T11:07:57.048Z,79.10
2017-08-24T11:10:23.310Z,79.10
2017-08-24T11:12:49.603Z,78.10
2017-08-24T11:15:15.855Z,76.30
2017-08-24T11:17:42.187Z,75.80
2017-08-24T11:20:08.459Z,75.60
2017-08-24T11:22:35.172Z,75.10
2017-08-24T11:25:01.442Z,75.30
2017-08-24T11:27:29.999Z,75.30
2017-08-24T11:29:56.264Z,75.30
2017-08-24T11:32:22.545Z,75.20
2017-08-24T11:34:48.811Z,75.00
2017-08-24T11:37:15.046Z,73.50
2017-08-24T11:39:41.387Z,73.40
2017-08-24T11:42:07.659Z,73.10
2017-08-24T11:44:33.922Z,72.60
2017-08-24T11:47:00.204Z,73.00
2017-08-24T11:49:26.494Z,72.80
2017-08-24T11:51:52.754Z,71.70
2017-08-24T11:54:19.005Z,71.50
2017-08-24T11:56:45.259Z,68.70
2017-08-24T11:59:11.509Z,68.30
2017-08-24T12:01:37.762Z,67.50
2017-08-24T12:04:04.123Z,66.40
2017-08-24T12:06:30.379Z,65.00
2017-08-24T12:08:56.617Z,64.00
2017-08-24T12:11:23.441Z,62.70
2017-08-24T12:13:49.694Z,62.00
2017-08-24T12:16:15.938Z,62.30
2017-08-24T12:18:42.249Z,62.30
2017-08-24T12:21:08.554Z,61.80
2017-08-24T12:23:35.743Z,60.90
2017-08-24T12:26:02.034Z,61.30
2017-08-24T12:28:28.290Z,61.40
2017-08-24T12:30:54.575Z,61.20
2017-08-24T12:33:21.815Z,61.40
2017-08-24T12:35:48.065Z,60.70
2017-08-24T12:38:14.310Z,59.90
2017-08-24T12:40:40.599Z,59.80
2017-08-24T12:43:06.866Z,60.10
2017-08-24T12:45:33.188Z,60.00
2017-08-24T12:47:59.466Z,60.20
2017-08-24T12:50:25.714Z,60.20
2017-08-24T12:52:51.967Z,60.10
2017-08-24T12:55:18.282Z,60.10
2017-08-24T12:57:44.583Z,60.50
2017-08-24T13:00:10.902Z,60.70
2017-08-24T13:02:37.235Z,60.10
2017-08-24T13:05:03.520Z,60.70
2017-08-24T13:07:29.835Z,60.00
2017-08-24T13:09:56.105Z,59.80
2017-08-24T13:12:22.438Z,59.90
2017-08-24T13:14:48.730Z,59.10
2017-08-24T13:17:15.870Z,58.10
2017-08-24T13:19:42.163Z,58.50
2017-08-24T13:22:08.444Z,58.40
2017-08-24T13:24:46.482Z,58.70
2017-08-24T13:27:12.738Z,58.70
2017-08-24T13:29:38.994Z,58.70
2017-08-24T13:32:05.300Z,58.40
2017-08-24T13:34:31.607Z,57.50
2017-08-24T13:36:57.898Z,57.90
2017-08-24T13:39:24.665Z,58.40
2017-08-24T13:41:50.987Z,58.30
2017-08-24T13:44:17.270Z,57.40
2017-08-24T13:46:43.555Z,57.50
2017-08-24T13:49:09.835Z,57.70
2017-08-24T13:51:36.079Z,57.50
2017-08-24T13:54:02.339Z,56.60
2017-08-24T13:56:28.675Z,56.70
2017-08-24T13:58:54.943Z,56.60
2017-08-24T14:01:22.626Z,56.50
2017-08-24T14:03:48.907Z,56.60
2017-08-24T14:06:15.182Z,56.30
2017-08-24T14:08:41.439Z,56.20
2017-08-24T14:11:07.764Z,56.50
2017-08-24T14:13:34.014Z,56.50
2017-08-24T14:16:00.298Z,56.90
2017-08-24T14:18:26.554Z,56.70
2017-08-24T14:20:52.887Z,56.70
2017-08-24T14:23:20.059Z,56.40
2017-08-24T14:25:46.829Z,56.60
2017-08-24T14:28:13.231Z,57.10
2017-08-24T14:30:39.518Z,57.10
2017-08-24T14:33:05.822Z,57.60
2017-08-24T14:35:32.057Z,57.50
2017-08-24T14:37:58.862Z,57.50
2017-08-24T14:40:25.199Z,57.30
2017-08-24T14:42:51.459Z,57.90
2017-08-24T14:45:18.327Z,57.40
2017-08-24T14:47:45.091Z,57.50
2017-08-24T14:50:11.421Z,57.40
2017-08-24T14:52:37.742Z,57.50
2017-08-24T14:55:04.016Z,57.80
2017-08-24T14:57:30.343Z,57.70
2017-08-24T14:59:56.630Z,57.80
2017-08-24T15:02:22.885Z,58.00
2017-08-24T15:04:49.138Z,58.00
2017-08-24T15:07:15.977Z,58.00
2017-08-24T15:09:42.216Z,58.30
2017-08-24T15:12:08.592Z,58.40
2017-08-24T15:14:34.862Z,58.50
2017-08-24T15:17:01.116Z,58.40
2017-08-24T15:19:27.435Z,58.30
2017-08-24T15:21:53.774Z,58.50
2017-08-24T15:24:20.004Z,58.70
2017-08-24T15:26:58.750Z,58.90
2017-08-24T15:29:25.020Z,59.40
2017-08-24T15:31:51.286Z,59.40
2017-08-24T15:34:17.559Z,59.60
2017-08-24T15:36:43.807Z,59.80
2017-08-24T15:39:10.072Z,59.60
2017-08-24T15:41:36.364Z,59.80
2017-08-24T15:44:02.655Z,59.90
2017-08-24T15:46:29.031Z,60.30
2017-08-24T15:48:56.062Z,60.40
2017-08-24T15:51:22.350Z,60.70
2017-08-24T15:53:48.641Z,60.80
2017-08-24T15:56:15.052Z,61.00
2017-08-24T15:58:41.320Z,62.50
2017-08-24T16:01:07.587Z,62.00
2017-08-24T16:03:33.915Z,61.50
2017-08-24T16:06:00.165Z,61.20
2017-08-24T16:08:26.419Z,61.90
2017-08-24T16:10:52.757Z,62.00
2017-08-24T16:13:19.035Z,62.40
2017-08-24T16:15:45.324Z,62.50
2017-08-24T16:18:11.671Z,62.70
2017-08-24T16:20:37.939Z,63.10
2017-08-24T16:23:04.191Z,63.40
2017-08-24T16:25:30.567Z,63.30
2017-08-24T16:27:58.167Z,63.50
2017-08-24T16:30:24.516Z,63.50
2017-08-24T16:32:50.775Z,64.10
2017-08-24T16:35:17.200Z,64.70
2017-08-24T16:37:43.491Z,64.10
2017-08-24T16:40:09.800Z,64.40
2017-08-24T16:42:36.079Z,64.90
2017-08-24T16:45:02.479Z,65.00
2017-08-24T16:47:28.746Z,64.80
2017-08-24T16:49:55.079Z,64.70
2017-08-24T16:52:21.355Z,64.50
2017-08-24T16:54:48.902Z,64.40
2017-08-24T16:57:15.965Z,64.90
2017-08-24T16:59:42.249Z,64.80
2017-08-24T17:02:08.594Z,65.00
2017-08-24T17:04:34.874Z,65.00
2017-08-24T17:07:01.174Z,65.00
2017-08-24T17:09:27.555Z,64.90
2017-08-24T17:11:53.921Z,65.00
2017-08-24T17:14:20.251Z,65.20
2017-08-24T17:16:47.400Z,65.40
2017-08-24T17:19:13.792Z,65.30
2017-08-24T17:21:40.107Z,65.00
2017-08-24T17:24:06.409Z,65.00
2017-08-24T17:26:32.663Z,65.10
2017-08-24T17:29:10.236Z,65.10
2017-08-24T17:31:36.630Z,64.80
2017-08-24T17:34:02.897Z,65.00
2017-08-24T17:36:30.561Z,64.70
2017-08-24T17:38:56.822Z,64.50
2017-08-24T17:41:23.111Z,63.90
2017-08-24T17:43:50.333Z,63.40
2017-08-24T17:46:16.782Z,62.40
2017-08-24T17:48:43.258Z,61.60
2017-08-24T17:51:09.552Z,61.10
2017-08-24T17:53:35.858Z,61.30
2017-08-24T17:56:02.113Z,60.80
2017-08-24T17:58:28.849Z,60.30
2017-08-24T18:00:55.510Z,60.10
2017-08-24T18:03:21.845Z,60.20
2017-08-24T18:05:48.366Z,60.60
2017-08-24T18:08:14.683Z,60.60
2017-08-24T18:10:41.236Z,60.40
2017-08-24T18:13:07.791Z,60.40
2017-08-24T18:15:34.210Z,60.60
2017-08-24T18:18:00.961Z,60.10
2017-08-24T18:20:27.370Z,61.10
2017-08-24T18:22:53.768Z,60.30
2017-08-24T18:25:20.253Z,60.20
2017-08-24T18:27:46.856Z,60.40
2017-08-24T18:30:25.413Z,60.40
2017-08-24T18:32:51.846Z,60.20
2017-08-24T18:35:18.379Z,60.50
2017-08-24T18:37:44.903Z,60.30
2017-08-24T18:40:11.368Z,60.40
2017-08-24T18:42:37.800Z,60.50
2017-08-24T18:45:04.911Z,60.50
2017-08-24T18:47:31.236Z,60.70
2017-08-24T18:49:57.887Z,60.60
2017-08-24T18:52:24.290Z,60.80
2017-08-24T18:54:50.622Z,60.70
2017-08-24T18:57:16.931Z,60.60
2017-08-24T18:59:43.218Z,60.50
2017-08-24T19:02:09.861Z,61.00
2017-08-24T19:04:36.126Z,61.20
2017-08-24T19:07:02.407Z,61.70
2017-08-24T19:09:28.744Z,61.50
2017-08-24T19:11:55.178Z,60.60
2017-08-24T19:14:21.478Z,61.50
2017-08-24T19:16:47.822Z,61.40
2017-08-24T19:19:14.075Z,61.80
2017-08-24T19:21:40.366Z,61.70
2017-08-24T19:24:07.518Z,61.80
2017-08-24T19:26:33.827Z,61.90
2017-08-24T19:29:00.099Z,61.80
2017-08-24T19:31:37.080Z,62.00
2017-08-24T19:34:03.377Z,61.90
2017-08-24T19:36:29.654Z,62.10
2017-08-24T19:38:55.967Z,62.30
2017-08-24T19:41:23.180Z,62.70
2017-08-24T19:43:50.335Z,62.70
2017-08-24T19:46:16.708Z,62.60
2017-08-24T19:48:43.239Z,62.60
2017-08-24T19:51:09.979Z,62.90
2017-08-24T19:53:36.318Z,62.80
2017-08-24T19:56:03.624Z,62.90
2017-08-24T19:58:30.427Z,63.00
2017-08-24T20:00:56.921Z,63.20
2017-08-24T20:03:23.501Z,63.20
2017-08-24T20:05:50.014Z,63.70
2017-08-24T20:08:18.508Z,63.50
2017-08-24T20:10:45.737Z,63.80
2017-08-24T20:13:12.301Z,64.30
2017-08-24T20:15:38.844Z,63.90
2017-08-24T20:18:06.062Z,64.10
2017-08-24T20:20:32.432Z,64.40
2017-08-24T20:22:59.987Z,64.40
2017-08-24T20:25:26.509Z,64.50
2017-08-24T20:27:53.726Z,64.60
2017-08-24T20:30:20.575Z,64.90
2017-08-24T20:32:47.943Z,64.90
2017-08-24T20:35:14.249Z,65.00
2017-08-24T20:37:40.782Z,65.60
2017-08-24T20:40:07.380Z,65.60
2017-08-24T20:42:33.884Z,65.50
2017-08-24T20:45:06.678Z,65.90
2017-08-24T20:47:34.072Z,66.30
2017-08-24T20:50:00.377Z,66.50
2017-08-24T20:52:27.626Z,67.10
2017-08-24T20:54:54.146Z,67.00
2017-08-24T20:57:20.418Z,67.40
2017-08-24T20:59:46.685Z,67.30
2017-08-24T21:02:13.095Z,67.00
2017-08-24T21:04:40.379Z,67.80
2017-08-24T21:07:06.762Z,67.60
2017-08-24T21:09:33.041Z,68.20
2017-08-24T21:11:59.572Z,68.30
2017-08-24T21:14:26.003Z,68.70
2017-08-24T21:16:52.278Z,68.70
2017-08-24T21:19:18.567Z,68.70
2017-08-24T21:21:45.043Z,68.80
2017-08-24T21:24:11.313Z,69.30
2017-08-24T21:26:37.602Z,69.40
2017-08-24T21:29:03.950Z,69.50
2017-08-24T21:31:30.205Z,69.70
2017-08-24T21:33:57.604Z,69.80
2017-08-24T21:36:24.186Z,69.70
2017-08-24T21:38:50.547Z,69.90
2017-08-24T21:41:16.798Z,70.10
2017-08-24T21:43:43.087Z,70.20
2017-08-24T21:46:09.358Z,70.40
2017-08-24T21:48:35.913Z,70.30
2017-08-24T21:51:02.343Z,70.30
2017-08-24T21:53:28.598Z,70.60
2017-08-24T21:55:54.866Z,70.50
2017-08-24T21:58:21.738Z,70.90
2017-08-24T22:00:47.978Z,70.90
2017-08-24T22:03:14.249Z,71.20
2017-08-24T22:05:40.537Z,71.30
2017-08-24T22:08:06.814Z,71.30
2017-08-24T22:10:33.094Z,71.60
2017-08-24T22:12:59.384Z,71.50
2017-08-24T22:15:25.637Z,71.60
2017-08-24T22:17:51.912Z,71.50
2017-08-24T22:20:18.582Z,71.70
2017-08-24T22:22:44.830Z,71.60
2017-08-24T22:25:11.091Z,71.40
2017-08-24T22:27:37.371Z,71.60
2017-08-24T22:30:03.641Z,71.50
2017-08-24T22:32:29.868Z,71.60
2017-08-24T22:34:57.474Z,71.60
2017-08-24T22:37:23.770Z,71.80
2017-08-24T22:39:50.030Z,71.80
2017-08-24T22:42:16.342Z,72.00
2017-08-24T22:44:42.610Z,72.10
2017-08-24T22:47:08.863Z,72.20
2017-08-24T22:51:56.792Z,72.30
2017-08-24T22:54:29.022Z,72.60
2017-08-24T22:57:01.596Z,72.50
2017-08-24T22:59:33.900Z,72.50
2017-08-24T23:02:07.152Z,72.60
2017-08-24T23:04:33.426Z,72.50
2017-08-24T23:06:59.682Z,72.70
2017-08-24T23:09:25.983Z,72.50
2017-08-24T23:11:52.216Z,72.50
2017-08-24T23:14:18.464Z,72.60
2017-08-24T23:16:44.760Z,72.70
2017-08-24T23:19:11.018Z,72.80
2017-08-24T23:21:37.302Z,72.70
2017-08-24T23:24:03.628Z,72.50
2017-08-24T23:26:29.886Z,72.30
2017-08-24T23:28:56.161Z,72.30
2017-08-24T23:31:22.426Z,71.80
2017-08-24T23:33:48.687Z,71.90
2017-08-24T23:36:15.058Z,72.20
2017-08-24T23:38:41.347Z,72.10
2017-08-24T23:41:07.596Z,72.10
2017-08-24T23:43:33.871Z,72.00
2017-08-24T23:46:00.635Z,72.50
2017-08-24T23:48:26.895Z,71.90
2017-08-24T23:50:53.677Z,72.10
2017-08-24T23:53:19.992Z,72.10
2017-08-24T23:55:46.279Z,72.30
2017-08-24T23:58:12.547Z,72.10
